createdAt,value
2023-05-01T00:00:43.118Z,7.42
2023-05-01T00:02:44.861Z,7.41
2023-05-01T00:04:47.810Z,7.40
2023-05-01T00:06:49.638Z,7.38
2023-05-01T00:08:52.065Z,7.38
2023-05-01T00:10:54.093Z,7.36
2023-05-01T00:12:55.771Z,7.36
2023-05-01T00:14:57.653Z,7.33
2023-05-01T00:16:59.494Z,7.32
2023-05-01T00:19:01.135Z,7.30
2023-05-01T00:21:04.743Z,7.26
2023-05-01T00:23:06.305Z,7.25
2023-05-01T00:25:08.726Z,7.22
2023-05-01T00:27:11.120Z,7.20
2023-05-01T00:29:12.799Z,7.19
2023-05-01T00:31:14.485Z,7.18
2023-05-01T00:33:16.455Z,7.16
2023-05-01T00:35:18.015Z,7.16
2023-05-01T00:37:21.397Z,7.13
2023-05-01T00:39:22.937Z,7.12
2023-05-01T00:41:24.490Z,7.11
2023-05-01T00:43:26.197Z,7.09
2023-05-01T00:45:27.830Z,7.06
2023-05-01T00:47:29.532Z,7.04
2023-05-01T00:49:31.549Z,7.04
2023-05-01T00:51:33.862Z,7.02
2023-05-01T00:53:37.404Z,7.00
2023-05-01T00:55:42.768Z,7.00
2023-05-01T00:57:44.698Z,6.97
2023-05-01T00:59:46.918Z,6.96
2023-05-01T01:01:48.794Z,6.94
2023-05-01T01:03:50.609Z,6.93
2023-05-01T01:05:57.501Z,6.91
2023-05-01T01:08:08.630Z,6.90
2023-05-01T01:10:22.964Z,6.88
2023-05-01T01:12:31.562Z,6.86
2023-05-01T01:14:39.843Z,6.83
2023-05-01T01:16:46.561Z,6.81
2023-05-01T01:18:52.919Z,6.78
2023-05-01T01:21:00.792Z,6.76
2023-05-01T01:23:24.530Z,6.75
2023-05-01T01:25:50.560Z,6.74
2023-05-01T01:28:19.459Z,6.72
2023-05-01T01:30:47.594Z,6.70
2023-05-01T01:33:04.490Z,6.68
2023-05-01T01:35:12.867Z,6.67
2023-05-01T01:37:19.974Z,6.64
2023-05-01T01:39:30.386Z,6.63
2023-05-01T01:41:34.502Z,6.60
2023-05-01T01:43:40.653Z,6.59
2023-05-01T01:45:46.315Z,6.56
2023-05-01T01:47:49.821Z,6.56
2023-05-01T01:49:55.563Z,6.56
2023-05-01T01:52:02.149Z,6.55
2023-05-01T01:54:05.578Z,6.54
2023-05-01T01:56:08.900Z,6.53
2023-05-01T01:58:12.418Z,6.52
2023-05-01T02:00:15.096Z,6.52
2023-05-01T02:02:20.066Z,6.52
2023-05-01T02:04:23.427Z,6.51
2023-05-01T02:06:26.035Z,6.51
2023-05-01T02:08:31.341Z,6.49
2023-05-01T02:10:35.253Z,6.48
2023-05-01T02:12:38.321Z,6.48
2023-05-01T02:14:42.337Z,6.47
2023-05-01T02:16:45.416Z,6.46
2023-05-01T02:18:47.394Z,6.45
2023-05-01T02:20:50.249Z,6.44
2023-05-01T02:22:52.839Z,6.43
2023-05-01T02:24:58.265Z,6.43
2023-05-01T02:27:04.272Z,6.41
2023-05-01T02:29:06.995Z,6.41
2023-05-01T02:31:10.665Z,6.39
2023-05-01T02:33:14.909Z,6.37
2023-05-01T02:35:16.673Z,6.36
2023-05-01T02:37:18.343Z,6.35
2023-05-01T02:39:20.092Z,6.35
2023-05-01T02:41:26.284Z,6.34
2023-05-01T02:43:30.599Z,6.32
2023-05-01T02:45:37.345Z,6.32
2023-05-01T02:47:42.669Z,6.31
2023-05-01T02:49:45.622Z,6.30
2023-05-01T02:51:48.734Z,6.28
2023-05-01T02:53:50.878Z,6.26
2023-05-01T02:55:53.569Z,6.25
2023-05-01T02:57:59.243Z,6.24
2023-05-01T03:00:02.232Z,6.23
2023-05-01T03:02:04.241Z,6.20
2023-05-01T03:04:06.339Z,6.19
2023-05-01T03:06:08.050Z,6.17
2023-05-01T03:08:10.223Z,6.16
2023-05-01T03:10:12.548Z,6.16
2023-05-01T03:12:14.443Z,6.15
2023-05-01T03:14:17.392Z,6.14
2023-05-01T03:16:19.056Z,6.14
2023-05-01T03:18:20.653Z,6.13
2023-05-01T03:20:22.594Z,6.12
2023-05-01T03:22:24.325Z,6.12
2023-05-01T03:24:25.956Z,6.10
2023-05-01T03:26:27.849Z,6.07
2023-05-01T03:28:29.747Z,6.06
2023-05-01T03:30:34.857Z,6.06
2023-05-01T03:32:36.410Z,6.04
2023-05-01T03:34:38.045Z,6.03
2023-05-01T03:36:39.835Z,6.02
2023-05-01T03:38:42.349Z,6.01
2023-05-01T03:40:44.664Z,6.00
2023-05-01T03:42:46.290Z,6.00
2023-05-01T03:44:48.430Z,5.99
2023-05-01T03:46:51.432Z,5.99
2023-05-01T03:48:53.419Z,5.98
2023-05-01T03:50:55.093Z,5.99
2023-05-01T03:52:57.933Z,5.97
2023-05-01T03:54:59.555Z,5.96
2023-05-01T03:57:01.416Z,5.96
2023-05-01T03:59:03.267Z,5.95
2023-05-01T04:01:05.322Z,5.94
2023-05-01T04:03:08.594Z,5.91
2023-05-01T04:05:10.557Z,5.89
2023-05-01T04:07:13.246Z,5.88
2023-05-01T04:09:15.974Z,5.89
2023-05-01T04:11:17.904Z,5.90
2023-05-01T04:13:19.491Z,5.91
2023-05-01T04:15:21.091Z,5.93
2023-05-01T04:17:22.960Z,5.95
2023-05-01T04:19:26.133Z,5.97
2023-05-01T04:21:30.999Z,5.97
2023-05-01T04:23:33.662Z,6.00
2023-05-01T04:25:36.511Z,6.01
2023-05-01T04:27:40.767Z,6.04
2023-05-01T04:29:42.574Z,6.06
2023-05-01T04:31:44.489Z,6.08
2023-05-01T04:33:46.737Z,6.12
2023-05-01T04:35:49.845Z,6.14
2023-05-01T04:38:00.381Z,6.19
2023-05-01T04:40:02.095Z,6.22
2023-05-01T04:42:04.350Z,6.27
2023-05-01T04:44:05.942Z,6.30
2023-05-01T04:46:07.972Z,6.34
2023-05-01T04:48:09.579Z,6.36
2023-05-01T04:50:11.692Z,6.41
2023-05-01T04:52:14.733Z,6.44
2023-05-01T04:54:16.552Z,6.48
2023-05-01T04:56:19.089Z,6.52
2023-05-01T04:58:20.703Z,6.54
2023-05-01T05:00:22.251Z,6.60
2023-05-01T05:02:24.254Z,6.64
2023-05-01T05:04:25.925Z,6.68
2023-05-01T05:06:27.877Z,6.74
2023-05-01T05:08:30.842Z,6.79
2023-05-01T05:10:32.459Z,6.84
2023-05-01T05:12:34.354Z,6.91
2023-05-01T05:14:37.771Z,6.98
2023-05-01T05:16:39.456Z,7.05
2023-05-01T05:18:41.171Z,7.12
2023-05-01T05:20:42.799Z,7.19
2023-05-01T05:22:44.362Z,7.26
2023-05-01T05:24:47.536Z,7.34
2023-05-01T05:26:49.354Z,7.44
2023-05-01T05:28:51.124Z,7.52
2023-05-01T05:30:53.043Z,7.60
2023-05-01T05:32:55.041Z,7.69
2023-05-01T05:34:56.917Z,7.77
2023-05-01T05:36:58.780Z,7.87
2023-05-01T05:39:00.639Z,7.97
2023-05-01T05:41:04.710Z,8.07
2023-05-01T05:43:06.796Z,8.15
2023-05-01T05:45:11.214Z,8.25
2023-05-01T05:47:13.377Z,8.37
2023-05-01T05:49:15.189Z,8.47
2023-05-01T05:51:16.794Z,8.59
2023-05-01T05:53:18.631Z,8.70
2023-05-01T05:55:20.260Z,8.81
2023-05-01T05:57:23.521Z,8.91
2023-05-01T05:59:26.420Z,9.02
2023-05-01T06:01:29.364Z,9.12
2023-05-01T06:03:31.246Z,9.23
2023-05-01T06:05:33.427Z,9.34
2023-05-01T06:07:35.630Z,9.45
2023-05-01T06:09:37.266Z,9.56
2023-05-01T06:11:38.849Z,9.67
2023-05-01T06:13:42.250Z,9.78
2023-05-01T06:15:44.014Z,9.90
2023-05-01T06:17:45.907Z,10.02
2023-05-01T06:19:47.593Z,10.14
2023-05-01T06:21:49.234Z,10.25
2023-05-01T06:23:51.101Z,10.37
2023-05-01T06:25:52.653Z,10.50
2023-05-01T06:27:54.346Z,10.61
2023-05-01T06:29:57.480Z,10.73
2023-05-01T06:31:59.354Z,10.86
2023-05-01T06:34:01.037Z,10.97
2023-05-01T06:36:02.617Z,11.09
2023-05-01T06:38:04.235Z,11.21
2023-05-01T06:40:07.591Z,11.32
2023-05-01T06:42:09.537Z,11.44
2023-05-01T06:44:11.424Z,11.54
2023-05-01T06:46:14.726Z,11.64
2023-05-01T06:48:18.007Z,11.75
2023-05-01T06:50:19.928Z,11.87
2023-05-01T06:52:21.574Z,11.98
2023-05-01T06:54:23.425Z,12.10
2023-05-01T06:56:25.074Z,12.23
2023-05-01T06:58:26.945Z,12.35
2023-05-01T07:00:29.037Z,12.47
2023-05-01T07:02:32.286Z,12.59
2023-05-01T07:04:34.208Z,12.71
2023-05-01T07:06:36.108Z,12.82
2023-05-01T07:08:39.193Z,12.94
2023-05-01T07:10:42.103Z,13.05
2023-05-01T07:12:44.091Z,13.16
2023-05-01T07:14:45.831Z,13.28
2023-05-01T07:16:48.015Z,13.38
2023-05-01T07:18:51.043Z,13.49
2023-05-01T07:20:52.687Z,13.61
2023-05-01T07:22:54.552Z,13.71
2023-05-01T07:24:56.118Z,13.80
2023-05-01T07:27:00.352Z,13.91
2023-05-01T07:29:02.159Z,14.05
2023-05-01T07:31:04.112Z,14.16
2023-05-01T07:33:05.889Z,14.28
2023-05-01T07:35:10.253Z,14.42
2023-05-01T07:37:12.186Z,14.55
2023-05-01T07:39:13.994Z,14.71
2023-05-01T07:41:15.870Z,14.85
2023-05-01T07:43:17.707Z,15.00
2023-05-01T07:45:19.355Z,15.13
2023-05-01T07:47:21.035Z,15.24
2023-05-01T07:49:22.660Z,15.37
2023-05-01T07:51:25.798Z,15.46
2023-05-01T07:53:27.496Z,15.59
2023-05-01T07:55:29.149Z,15.73
2023-05-01T07:57:31.339Z,15.85
2023-05-01T07:59:32.977Z,15.96
2023-05-01T08:01:36.533Z,16.04
2023-05-01T08:03:38.344Z,16.18
2023-05-01T08:05:41.091Z,16.27
2023-05-01T08:07:44.114Z,16.38
2023-05-01T08:09:47.290Z,16.51
2023-05-01T08:11:49.112Z,16.67
2023-05-01T08:13:52.202Z,16.81
2023-05-01T08:15:53.954Z,16.95
2023-05-01T08:17:55.683Z,17.08
2023-05-01T08:19:57.685Z,17.22
2023-05-01T08:21:59.491Z,17.35
2023-05-01T08:24:02.614Z,17.49
2023-05-01T08:26:04.329Z,17.62
2023-05-01T08:28:05.975Z,17.75
2023-05-01T08:30:08.282Z,17.87
2023-05-01T08:32:10.269Z,17.99
2023-05-01T08:34:11.998Z,18.12
2023-05-01T08:36:13.964Z,18.24
2023-05-01T08:38:17.380Z,18.36
2023-05-01T08:40:20.688Z,18.52
2023-05-01T08:42:22.735Z,18.65
2023-05-01T08:44:25.512Z,18.80
2023-05-01T08:46:37.905Z,18.97
2023-05-01T08:48:42.903Z,19.11
2023-05-01T08:50:47.006Z,19.22
2023-05-01T08:52:51.688Z,19.38
2023-05-01T08:54:56.158Z,19.49
2023-05-01T08:57:01.353Z,19.61
2023-05-01T08:59:05.427Z,19.71
2023-05-01T09:01:09.657Z,19.83
2023-05-01T09:03:13.263Z,19.94
2023-05-01T09:05:16.492Z,20.05
2023-05-01T09:07:18.296Z,20.17
2023-05-01T09:09:20.408Z,20.27
2023-05-01T09:11:23.139Z,20.34
2023-05-01T09:13:26.716Z,20.43
2023-05-01T09:15:30.042Z,20.47
2023-05-01T09:17:32.404Z,20.55
2023-05-01T09:19:34.218Z,20.59
2023-05-01T09:21:35.853Z,20.66
2023-05-01T09:23:37.631Z,20.70
2023-05-01T09:25:39.288Z,20.78
2023-05-01T09:27:41.096Z,20.87
2023-05-01T09:29:46.445Z,20.96
2023-05-01T09:31:48.324Z,21.04
2023-05-01T09:33:54.152Z,21.13
2023-05-01T09:35:57.507Z,21.23
2023-05-01T09:37:59.036Z,21.33
2023-05-01T09:40:08.195Z,21.48
2023-05-01T09:42:10.118Z,21.57
2023-05-01T09:44:18.269Z,21.65
2023-05-01T09:46:22.474Z,21.77
2023-05-01T09:48:24.179Z,21.85
2023-05-01T09:50:30.305Z,21.90
2023-05-01T09:52:32.246Z,21.93
2023-05-01T09:54:34.244Z,21.98
2023-05-01T09:56:47.154Z,22.05
2023-05-01T09:58:51.198Z,22.09
2023-05-01T10:00:53.014Z,22.17
2023-05-01T10:02:56.043Z,22.26
2023-05-01T10:04:58.714Z,22.35
2023-05-01T10:07:11.569Z,22.49
2023-05-01T10:09:28.263Z,22.60
2023-05-01T10:11:30.015Z,22.65
2023-05-01T10:13:32.020Z,22.72
2023-05-01T10:15:36.942Z,22.80
2023-05-01T10:17:39.623Z,22.88
2023-05-01T10:19:43.073Z,22.97
2023-05-01T10:21:44.931Z,23.05
2023-05-01T10:23:46.908Z,23.17
2023-05-01T10:25:52.515Z,23.24
2023-05-01T10:27:55.137Z,23.34
2023-05-01T10:29:58.480Z,23.40
2023-05-01T10:32:01.927Z,23.48
2023-05-01T10:34:06.104Z,23.58
2023-05-01T10:36:17.987Z,23.68
2023-05-01T10:38:23.944Z,23.72
2023-05-01T10:40:46.036Z,23.79
2023-05-01T10:43:18.825Z,23.81
2023-05-01T10:45:30.917Z,23.81
2023-05-01T10:47:44.825Z,23.76
2023-05-01T10:50:06.276Z,23.81
2023-05-01T10:52:09.180Z,23.84
2023-05-01T10:54:24.598Z,23.96
2023-05-01T10:56:42.966Z,24.11
2023-05-01T10:58:59.470Z,24.24
2023-05-01T11:01:28.627Z,24.40
2023-05-01T11:03:37.062Z,24.52
2023-05-01T11:06:07.284Z,24.69
2023-05-01T11:08:32.567Z,24.82
2023-05-01T11:10:34.180Z,24.90
2023-05-01T11:12:49.679Z,25.03
2023-05-01T11:15:07.336Z,25.13
2023-05-01T11:17:08.929Z,25.18
2023-05-01T11:19:29.372Z,25.25
2023-05-01T11:21:32.542Z,25.31
2023-05-01T11:23:36.411Z,25.36
2023-05-01T11:25:38.247Z,25.38
2023-05-01T11:27:40.279Z,25.41
2023-05-01T11:29:45.268Z,25.42
2023-05-01T11:31:48.413Z,25.44
2023-05-01T11:33:50.515Z,25.48
2023-05-01T11:35:59.760Z,25.53
2023-05-01T11:38:03.949Z,25.60
2023-05-01T11:40:19.444Z,25.70
2023-05-01T11:42:21.751Z,25.75
2023-05-01T11:44:24.154Z,25.80
2023-05-01T11:46:26.371Z,25.85
2023-05-01T11:48:31.652Z,25.88
2023-05-01T11:50:34.596Z,25.90
2023-05-01T11:52:44.567Z,25.90
2023-05-01T11:54:49.008Z,25.92
2023-05-01T11:56:59.382Z,25.90
2023-05-01T11:59:11.103Z,25.90
2023-05-01T12:01:12.691Z,25.89
2023-05-01T12:03:15.383Z,25.86
2023-05-01T12:05:17.574Z,25.81
2023-05-01T12:07:23.511Z,25.79
2023-05-01T12:09:26.607Z,25.76
2023-05-01T12:11:28.455Z,25.78
2023-05-01T12:13:31.505Z,25.82
2023-05-01T12:15:35.577Z,25.85
2023-05-01T12:17:37.599Z,25.86
2023-05-01T12:19:49.222Z,25.91
2023-05-01T12:22:05.471Z,25.97
2023-05-01T12:24:10.889Z,25.97
2023-05-01T12:26:17.077Z,26.02
2023-05-01T12:28:20.061Z,26.03
2023-05-01T12:30:27.844Z,26.07
2023-05-01T12:32:31.718Z,26.05
2023-05-01T12:34:34.524Z,26.03
2023-05-01T12:36:37.106Z,26.04
2023-05-01T12:38:39.212Z,26.03
2023-05-01T12:40:49.654Z,26.02
2023-05-01T12:42:56.002Z,26.00
2023-05-01T12:45:01.008Z,26.00
2023-05-01T12:47:06.393Z,26.02
2023-05-01T12:49:08.145Z,26.05
2023-05-01T12:51:09.806Z,26.09
2023-05-01T12:53:11.598Z,26.12
2023-05-01T12:55:13.377Z,26.15
2023-05-01T12:57:16.890Z,26.17
2023-05-01T12:59:22.889Z,26.20
2023-05-01T13:01:25.920Z,26.22
2023-05-01T13:03:30.343Z,26.24
2023-05-01T13:05:32.226Z,26.26
2023-05-01T13:07:34.830Z,26.28
2023-05-01T13:09:36.570Z,26.28
2023-05-01T13:11:38.656Z,26.28
2023-05-01T13:13:40.961Z,26.29
2023-05-01T13:15:42.632Z,26.32
2023-05-01T13:17:44.577Z,26.35
2023-05-01T13:19:54.012Z,26.41
2023-05-01T13:21:56.379Z,26.45
2023-05-01T13:24:00.266Z,26.47
2023-05-01T13:26:02.340Z,26.50
2023-05-01T13:28:04.952Z,26.50
2023-05-01T13:30:07.981Z,26.51
2023-05-01T13:32:12.038Z,26.51
2023-05-01T13:34:21.577Z,26.44
2023-05-01T13:36:27.126Z,26.33
2023-05-01T13:38:30.585Z,26.28
2023-05-01T13:40:34.574Z,26.26
2023-05-01T13:42:36.480Z,26.27
2023-05-01T13:44:43.619Z,26.30
2023-05-01T13:46:46.244Z,26.30
2023-05-01T13:48:48.359Z,26.30
2023-05-01T13:50:50.422Z,26.29
2023-05-01T13:52:53.900Z,26.30
2023-05-01T13:54:56.877Z,26.27
2023-05-01T13:57:01.171Z,26.28
2023-05-01T13:59:03.677Z,26.27
2023-05-01T14:01:07.060Z,26.25
2023-05-01T14:03:10.910Z,26.27
2023-05-01T14:05:12.807Z,26.28
2023-05-01T14:07:17.851Z,26.27
2023-05-01T14:09:20.992Z,26.23
2023-05-01T14:11:22.654Z,26.19
2023-05-01T14:13:27.064Z,26.14
2023-05-01T14:15:28.810Z,26.08
2023-05-01T14:17:32.391Z,26.07
2023-05-01T14:19:34.354Z,26.05
2023-05-01T14:21:40.963Z,26.01
2023-05-01T14:23:42.833Z,25.99
2023-05-01T14:25:45.895Z,25.97
2023-05-01T14:27:47.462Z,25.97
2023-05-01T14:29:49.676Z,25.98
2023-05-01T14:31:51.370Z,26.01
2023-05-01T14:33:55.737Z,26.04
2023-05-01T14:35:57.309Z,26.07
2023-05-01T14:38:12.504Z,26.11
2023-05-01T14:40:14.725Z,26.13
2023-05-01T14:42:17.855Z,26.15
2023-05-01T14:44:26.539Z,26.16
2023-05-01T14:46:30.509Z,26.15
2023-05-01T14:48:36.214Z,26.17
2023-05-01T14:50:38.786Z,26.20
2023-05-01T14:52:41.433Z,26.20
2023-05-01T14:54:45.793Z,26.24
2023-05-01T14:56:48.410Z,26.23
2023-05-01T14:58:51.687Z,26.24
2023-05-01T15:00:53.563Z,26.22
2023-05-01T15:02:55.470Z,26.25
2023-05-01T15:04:57.216Z,26.26
2023-05-01T15:06:59.049Z,26.28
2023-05-01T15:09:00.769Z,26.29
2023-05-01T15:11:02.369Z,26.32
2023-05-01T15:13:04.177Z,26.34
2023-05-01T15:15:08.937Z,26.32
2023-05-01T15:17:10.787Z,26.28
2023-05-01T15:19:12.633Z,26.24
2023-05-01T15:21:14.666Z,26.22
2023-05-01T15:23:16.629Z,26.22
2023-05-01T15:25:18.529Z,26.21
2023-05-01T15:27:20.433Z,26.19
2023-05-01T15:29:22.218Z,26.17
2023-05-01T15:31:25.230Z,26.16
2023-05-01T15:33:27.020Z,26.10
2023-05-01T15:35:28.878Z,26.06
2023-05-01T15:37:31.111Z,26.00
2023-05-01T15:39:32.846Z,25.95
2023-05-01T15:41:34.383Z,25.90
2023-05-01T15:43:35.952Z,25.86
2023-05-01T15:45:37.593Z,25.85
2023-05-01T15:47:40.724Z,25.82
2023-05-01T15:49:42.370Z,25.82
2023-05-01T15:51:44.141Z,25.83
2023-05-01T15:53:45.821Z,25.83
2023-05-01T15:55:47.634Z,25.84
2023-05-01T15:57:49.344Z,25.86
2023-05-01T15:59:51.190Z,25.84
2023-05-01T16:01:53.846Z,25.82
2023-05-01T16:03:56.861Z,25.84
2023-05-01T16:05:58.741Z,25.79
2023-05-01T16:08:01.609Z,25.75
2023-05-01T16:10:04.208Z,25.70
2023-05-01T16:12:07.394Z,25.67
2023-05-01T16:14:09.500Z,25.64
2023-05-01T16:16:12.097Z,25.61
2023-05-01T16:18:19.709Z,25.58
2023-05-01T16:20:24.055Z,25.54
2023-05-01T16:22:25.952Z,25.45
2023-05-01T16:24:27.789Z,25.39
2023-05-01T16:26:30.462Z,25.31
2023-05-01T16:28:34.599Z,25.24
2023-05-01T16:30:41.335Z,25.20
2023-05-01T16:32:43.922Z,25.14
2023-05-01T16:34:45.768Z,25.10
2023-05-01T16:36:48.850Z,25.05
2023-05-01T16:38:50.421Z,25.00
2023-05-01T16:40:52.225Z,24.95
2023-05-01T16:42:54.971Z,24.89
2023-05-01T16:44:56.783Z,24.81
2023-05-01T16:46:58.795Z,24.75
2023-05-01T16:49:00.610Z,24.65
2023-05-01T16:51:04.461Z,24.57
2023-05-01T16:53:07.586Z,24.49
2023-05-01T16:55:09.925Z,24.41
2023-05-01T16:57:11.643Z,24.35
2023-05-01T16:59:13.480Z,24.30
2023-05-01T17:01:15.033Z,24.23
2023-05-01T17:03:16.904Z,24.17
2023-05-01T17:05:18.721Z,24.08
2023-05-01T17:07:22.734Z,24.04
2023-05-01T17:09:25.660Z,23.97
2023-05-01T17:11:28.254Z,23.91
2023-05-01T17:13:31.578Z,23.84
2023-05-01T17:15:33.402Z,23.79
2023-05-01T17:17:35.190Z,23.73
2023-05-01T17:19:37.263Z,23.66
2023-05-01T17:21:38.911Z,23.61
2023-05-01T17:23:40.528Z,23.55
2023-05-01T17:25:43.713Z,23.50
2023-05-01T17:27:45.313Z,23.47
2023-05-01T17:29:47.145Z,23.46
2023-05-01T17:31:49.015Z,23.47
2023-05-01T17:33:50.861Z,23.45
2023-05-01T17:35:52.419Z,23.48
2023-05-01T17:37:54.261Z,23.52
2023-05-01T17:39:56.161Z,23.58
2023-05-01T17:41:59.460Z,23.62
2023-05-01T17:44:01.136Z,23.69
2023-05-01T17:46:02.811Z,23.72
2023-05-01T17:48:05.258Z,23.74
2023-05-01T17:50:08.242Z,23.71
2023-05-01T17:52:09.822Z,23.58
2023-05-01T17:54:11.673Z,23.48
2023-05-01T17:56:13.726Z,23.38
2023-05-01T17:58:16.832Z,23.26
2023-05-01T18:00:19.713Z,23.13
2023-05-01T18:02:22.987Z,22.98
2023-05-01T18:04:25.025Z,22.87
2023-05-01T18:06:26.736Z,22.73
2023-05-01T18:08:28.379Z,22.62
2023-05-01T18:10:30.040Z,22.52
2023-05-01T18:12:31.668Z,22.41
2023-05-01T18:14:34.676Z,22.31
2023-05-01T18:16:36.310Z,22.21
2023-05-01T18:18:38.241Z,22.12
2023-05-01T18:20:39.842Z,22.03
2023-05-01T18:22:41.716Z,21.94
2023-05-01T18:24:43.518Z,21.84
2023-05-01T18:26:45.392Z,21.72
2023-05-01T18:28:47.017Z,21.64
2023-05-01T18:30:50.095Z,21.55
2023-05-01T18:32:51.738Z,21.45
2023-05-01T18:34:53.293Z,21.36
2023-05-01T18:36:54.855Z,21.28
2023-05-01T18:38:56.496Z,21.19
2023-05-01T18:40:58.357Z,21.10
2023-05-01T18:43:00.030Z,20.99
2023-05-01T18:45:01.920Z,20.89
2023-05-01T18:47:05.173Z,20.78
2023-05-01T18:49:07.002Z,20.68
2023-05-01T18:51:09.717Z,20.60
2023-05-01T18:53:11.332Z,20.51
2023-05-01T18:55:13.229Z,20.41
2023-05-01T18:57:17.235Z,20.32
2023-05-01T18:59:19.058Z,20.23
2023-05-01T19:01:20.879Z,20.14
2023-05-01T19:03:23.903Z,20.04
2023-05-01T19:05:25.653Z,19.96
2023-05-01T19:07:27.342Z,19.88
2023-05-01T19:09:28.959Z,19.79
2023-05-01T19:11:30.739Z,19.72
2023-05-01T19:13:32.556Z,19.65
2023-05-01T19:15:34.211Z,19.59
2023-05-01T19:17:35.958Z,19.51
2023-05-01T19:19:38.955Z,19.43
2023-05-01T19:21:40.506Z,19.36
2023-05-01T19:23:42.359Z,19.29
2023-05-01T19:25:44.194Z,19.21
2023-05-01T19:27:45.705Z,19.14
2023-05-01T19:29:47.335Z,19.07
2023-05-01T19:31:49.014Z,19.01
2023-05-01T19:33:51.156Z,18.94
2023-05-01T19:35:54.518Z,18.86
2023-05-01T19:37:58.623Z,18.80
2023-05-01T19:40:00.570Z,18.75
2023-05-01T19:42:04.168Z,18.68
2023-05-01T19:44:05.763Z,18.64
2023-05-01T19:46:07.798Z,18.58
2023-05-01T19:48:10.013Z,18.53
2023-05-01T19:50:12.066Z,18.48
2023-05-01T19:52:15.043Z,18.40
2023-05-01T19:54:16.789Z,18.35
2023-05-01T19:56:18.400Z,18.30
2023-05-01T19:58:20.238Z,18.23
2023-05-01T20:00:21.824Z,18.18
2023-05-01T20:02:23.634Z,18.12
2023-05-01T20:04:25.373Z,18.05
2023-05-01T20:06:27.261Z,17.99
2023-05-01T20:08:30.423Z,17.94
2023-05-01T20:10:32.514Z,17.89
2023-05-01T20:12:34.684Z,17.83
2023-05-01T20:14:36.526Z,17.79
2023-05-01T20:16:38.608Z,17.75
2023-05-01T20:18:40.969Z,17.70
2023-05-01T20:20:42.832Z,17.64
2023-05-01T20:22:44.558Z,17.59
2023-05-01T20:24:47.516Z,17.53
2023-05-01T20:26:49.112Z,17.50
2023-05-01T20:28:51.218Z,17.44
2023-05-01T20:30:53.067Z,17.39
2023-05-01T20:32:54.840Z,17.35
2023-05-01T20:34:56.410Z,17.30
2023-05-01T20:36:58.033Z,17.25
2023-05-01T20:39:01.163Z,17.21
2023-05-01T20:41:04.257Z,17.16
2023-05-01T20:43:06.444Z,17.13
2023-05-01T20:45:09.386Z,17.08
2023-05-01T20:47:11.190Z,17.04
2023-05-01T20:49:15.696Z,16.98
2023-05-01T20:51:17.553Z,16.91
2023-05-01T20:53:19.318Z,16.86
2023-05-01T20:55:21.299Z,16.80
2023-05-01T20:57:24.485Z,16.72
2023-05-01T20:59:26.063Z,16.66
2023-05-01T21:01:29.786Z,16.61
2023-05-01T21:03:32.792Z,16.53
2023-05-01T21:05:34.592Z,16.49
2023-05-01T21:07:36.679Z,16.45
2023-05-01T21:09:44.213Z,16.42
2023-05-01T21:11:46.033Z,16.38
2023-05-01T21:13:49.499Z,16.35
2023-05-01T21:15:51.714Z,16.31
2023-05-01T21:17:53.650Z,16.29
2023-05-01T21:19:55.487Z,16.25
2023-05-01T21:21:57.137Z,16.22
2023-05-01T21:23:58.790Z,16.18
2023-05-01T21:26:00.428Z,16.15
2023-05-01T21:28:02.870Z,16.11
2023-05-01T21:30:08.838Z,16.07
2023-05-01T21:32:13.366Z,16.04
2023-05-01T21:34:18.030Z,15.98
2023-05-01T21:36:19.814Z,15.94
2023-05-01T21:38:21.660Z,15.90
2023-05-01T21:40:24.272Z,15.85
2023-05-01T21:42:30.672Z,15.81
2023-05-01T21:44:32.313Z,15.75
2023-05-01T21:46:36.673Z,15.70
2023-05-01T21:48:39.012Z,15.66
2023-05-01T21:50:40.617Z,15.61
2023-05-01T21:52:43.981Z,15.57
2023-05-01T21:54:45.620Z,15.53
2023-05-01T21:56:47.271Z,15.50
2023-05-01T21:58:49.169Z,15.46
2023-05-01T22:00:51.493Z,15.42
2023-05-01T22:02:54.545Z,15.38
2023-05-01T22:04:56.195Z,15.32
2023-05-01T22:06:58.042Z,15.26
2023-05-01T22:08:59.819Z,15.21
2023-05-01T22:11:05.392Z,15.18
2023-05-01T22:13:08.098Z,15.16
2023-05-01T22:15:11.522Z,15.13
2023-05-01T22:17:13.673Z,15.09
2023-05-01T22:19:16.942Z,15.04
2023-05-01T22:21:18.761Z,15.00
2023-05-01T22:23:20.924Z,14.96
2023-05-01T22:25:22.510Z,14.92
2023-05-01T22:27:24.267Z,14.89
2023-05-01T22:29:26.054Z,14.86
2023-05-01T22:31:27.923Z,14.83
2023-05-01T22:33:29.626Z,14.79
2023-05-01T22:35:32.914Z,14.75
2023-05-01T22:37:34.472Z,14.73
2023-05-01T22:39:36.311Z,14.70
2023-05-01T22:41:38.095Z,14.67
2023-05-01T22:43:39.730Z,14.63
2023-05-01T22:45:41.288Z,14.60
2023-05-01T22:47:43.057Z,14.58
2023-05-01T22:49:44.947Z,14.55
2023-05-01T22:51:47.904Z,14.52
2023-05-01T22:53:49.771Z,14.50
2023-05-01T22:55:51.392Z,14.47
2023-05-01T22:57:53.045Z,14.44
2023-05-01T22:59:54.833Z,14.40
2023-05-01T23:01:56.926Z,14.35
2023-05-01T23:03:58.897Z,14.32
2023-05-01T23:06:00.848Z,14.26
2023-05-01T23:08:04.561Z,14.21
2023-05-01T23:10:07.033Z,14.16
2023-05-01T23:12:18.377Z,14.11
2023-05-01T23:14:20.016Z,14.06
2023-05-01T23:16:21.703Z,13.98
2023-05-01T23:18:24.972Z,13.93
2023-05-01T23:20:26.612Z,13.87
2023-05-01T23:22:29.793Z,13.81
2023-05-01T23:24:40.912Z,13.77
2023-05-01T23:26:42.832Z,13.71
2023-05-01T23:28:44.502Z,13.66
2023-05-01T23:30:52.214Z,13.60
2023-05-01T23:32:58.455Z,13.54
2023-05-01T23:35:02.415Z,13.50
2023-05-01T23:37:04.027Z,13.45
2023-05-01T23:39:05.885Z,13.40
2023-05-01T23:41:09.794Z,13.36
2023-05-01T23:43:12.622Z,13.32
2023-05-01T23:45:14.393Z,13.28
2023-05-01T23:47:16.422Z,13.23
2023-05-01T23:49:19.462Z,13.19
2023-05-01T23:51:21.070Z,13.15
2023-05-01T23:53:22.872Z,13.13
2023-05-01T23:55:24.473Z,13.09
2023-05-01T23:57:27.733Z,13.05
2023-05-01T23:59:29.527Z,13.01
